Time;durP1;ratioP1;P1;durP2;ratioP2;P2;SDS_P1;SDS_P2;PMS_P1;PMS_P2;Temp;Humidity;BMP_temperature;BMP_pressure;BME280_temperature;BME280_humidity;BME280_pressure;Samples;Min_cycle;Max_cycle;Signal;HPM_P1;HPM_P2
2021/12/30 00:00:03;;;;;;;36.08;5.43;;;;;;;;;;5003037;28;20823;-67
2021/12/30 00:02:30;;;;;;;21.23;4.20;;;;;;;;;;5001504;28;20133;-67
2021/12/30 00:04:55;;;;;;;29.35;5.43;;;;;;;;;;5001457;28;20113;-67
2021/12/30 00:07:20;;;;;;;30.13;4.30;;;;;;;;;;5001694;28;20104;-67
2021/12/30 00:09:45;;;;;;;43.28;6.95;;;;;;;;;;5001676;28;20714;-67
2021/12/30 00:12:11;;;;;;;37.72;5.65;;;;;;;;;;4999489;28;20616;-66
2021/12/30 00:14:36;;;;;;;28.48;6.05;;;;;;;;;;5001421;28;20588;-67
2021/12/30 00:17:02;;;;;;;30.00;4.17;;;;;;;;;;5002307;28;20097;-67
2021/12/30 00:19:27;;;;;;;31.13;4.15;;;;;;;;;;5004764;28;20673;-67
2021/12/30 00:21:52;;;;;;;38.87;5.43;;;;;;;;;;5004458;28;20022;-66
2021/12/30 00:24:18;;;;;;;27.00;3.90;;;;;;;;;;5002414;28;20773;-66
2021/12/30 00:26:43;;;;;;;34.53;4.72;;;;;;;;;;5002418;28;20064;-66
2021/12/30 00:29:08;;;;;;;28.17;4.68;;;;;;;;;;5002636;28;20129;-67
2021/12/30 00:31:34;;;;;;;26.57;5.57;;;;;;;;;;5002601;28;20076;-67
2021/12/30 00:33:59;;;;;;;23.55;3.88;;;;;;;;;;5002575;28;20850;-67
2021/12/30 00:36:24;;;;;;;33.70;5.47;;;;;;;;;;5001995;28;20292;-67
2021/12/30 00:38:49;;;;;;;34.53;4.93;;;;;;;;;;5002675;28;20057;-68
2021/12/30 00:41:15;;;;;;;31.65;3.78;;;;;;;;;;5001552;28;20037;-66
2021/12/30 00:43:40;;;;;;;23.13;4.28;;;;;;;;;;5009022;28;20104;-67
2021/12/30 00:46:06;;;;;;;18.25;3.67;;;;;;;;;;5005276;28;20089;-67
2021/12/30 00:48:31;;;;;;;29.55;4.85;;;;;;;;;;5001331;28;20025;-67
2021/12/30 00:50:57;;;;;;;20.33;3.92;;;;;;;;;;5001982;28;20430;-66
2021/12/30 00:53:22;;;;;;;37.88;5.00;;;;;;;;;;5001687;28;20470;-66
2021/12/30 00:55:48;;;;;;;19.33;4.50;;;;;;;;;;5004089;28;20025;-67
2021/12/30 00:58:13;;;;;;;35.90;5.05;;;;;;;;;;5002053;28;20284;-67
2021/12/30 01:00:40;;;;;;;36.00;7.15;;;;;;;;;;5002358;28;20446;-67
2021/12/30 01:03:06;;;;;;;38.08;5.22;;;;;;;;;;5002199;28;20018;-67
2021/12/30 01:05:31;;;;;;;31.48;2.80;;;;;;;;;;5001038;28;20113;-66
2021/12/30 01:07:57;;;;;;;38.20;5.65;;;;;;;;;;5001696;28;20080;-66
2021/12/30 01:10:25;;;;;;;12.25;3.80;;;;;;;;;;5001455;28;20033;-66
2021/12/30 01:12:54;;;;;;;32.85;5.80;;;;;;;;;;5002543;28;20026;-65
2021/12/30 01:15:21;;;;;;;22.02;4.75;;;;;;;;;;5001795;28;20369;-67
2021/12/30 01:20:16;;;;;;;24.70;5.20;;;;;;;;;;5003133;28;20033;-66
2021/12/30 01:22:41;;;;;;;32.25;4.85;;;;;;;;;;5000586;28;20036;-66
2021/12/30 01:25:07;;;;;;;32.00;5.50;;;;;;;;;;5001707;28;20557;-67
2021/12/30 01:27:33;;;;;;;26.70;4.57;;;;;;;;;;5001380;28;20053;-67
2021/12/30 01:29:59;;;;;;;29.90;5.72;;;;;;;;;;5001692;28;20018;-67
2021/12/30 01:32:24;;;;;;;28.33;6.20;;;;;;;;;;5000513;28;20041;-66
2021/12/30 01:34:49;;;;;;;30.13;5.07;;;;;;;;;;5001079;28;20391;-66
2021/12/30 01:37:19;;;;;;;26.00;5.47;;;;;;;;;;4999664;28;20029;-66
2021/12/30 01:39:44;;;;;;;32.23;6.50;;;;;;;;;;5001871;28;20018;-66
2021/12/30 01:42:10;;;;;;;35.20;4.30;;;;;;;;;;5001657;28;20652;-67
2021/12/30 01:44:36;;;;;;;28.35;4.78;;;;;;;;;;5004350;28;20018;-65
2021/12/30 01:47:02;;;;;;;36.65;6.03;;;;;;;;;;5000442;28;20384;-66
2021/12/30 01:49:27;;;;;;;27.48;5.03;;;;;;;;;;5001052;28;20459;-66
2021/12/30 01:51:54;;;;;;;29.10;4.43;;;;;;;;;;5000757;28;20030;-67
2021/12/30 01:54:20;;;;;;;31.55;5.50;;;;;;;;;;5001213;28;20054;-66
2021/12/30 01:56:45;;;;;;;32.83;4.60;;;;;;;;;;4999331;28;20076;-67
2021/12/30 01:59:11;;;;;;;25.95;4.78;;;;;;;;;;5001153;28;20030;-66
2021/12/30 02:01:37;;;;;;;7.75;2.00;;;;;;;;;;4999815;28;20426;-66
2021/12/30 02:04:02;;;;;;;19.75;3.38;;;;;;;;;;5001962;28;20030;-66
2021/12/30 02:06:27;;;;;;;22.98;3.85;;;;;;;;;;5002044;28;20022;-66
2021/12/30 02:08:53;;;;;;;29.85;4.15;;;;;;;;;;5002448;28;20091;-66
2021/12/30 02:11:19;;;;;;;34.10;4.40;;;;;;;;;;5004554;28;20491;-65
2021/12/30 02:13:46;;;;;;;23.65;3.85;;;;;;;;;;5006626;28;20448;-67
2021/12/30 02:16:11;;;;;;;35.92;4.63;;;;;;;;;;5004130;28;21054;-66
2021/12/30 02:18:37;;;;;;;25.02;4.38;;;;;;;;;;5005062;28;20044;-67
2021/12/30 02:21:02;;;;;;;28.83;4.57;;;;;;;;;;5007421;28;20097;-66
2021/12/30 02:23:29;;;;;;;27.85;5.28;;;;;;;;;;5012100;28;20028;-67
2021/12/30 02:25:56;;;;;;;32.63;4.78;;;;;;;;;;5012579;28;20691;-67
2021/12/30 02:28:23;;;;;;;22.85;3.90;;;;;;;;;;5007734;28;20355;-67
2021/12/30 02:30:48;;;;;;;31.00;4.80;;;;;;;;;;5008140;28;20026;-66
2021/12/30 02:33:14;;;;;;;21.45;3.22;;;;;;;;;;5004402;28;20080;-66
2021/12/30 02:35:39;;;;;;;24.33;4.87;;;;;;;;;;5004902;28;20121;-66
2021/12/30 02:38:04;;;;;;;21.08;4.35;;;;;;;;;;5004534;28;20339;-66
2021/12/30 02:40:36;;;;;;;20.38;3.92;;;;;;;;;;5003300;28;20018;-66
2021/12/30 02:43:02;;;;;;;24.08;5.05;;;;;;;;;;5007153;28;20108;-66
2021/12/30 02:45:27;;;;;;;26.73;4.25;;;;;;;;;;5005289;28;20044;-66
2021/12/30 02:47:53;;;;;;;23.42;3.58;;;;;;;;;;5004714;28;20018;-66
2021/12/30 02:50:18;;;;;;;19.65;4.30;;;;;;;;;;5003742;28;20029;-66
2021/12/30 02:52:43;;;;;;;38.13;4.57;;;;;;;;;;5005231;28;20064;-67
2021/12/30 02:55:09;;;;;;;28.23;4.65;;;;;;;;;;5007371;28;20483;-66
2021/12/30 02:57:34;;;;;;;28.08;4.47;;;;;;;;;;5019949;23;20054;-66
2021/12/30 03:00:00;;;;;;;23.13;4.18;;;;;;;;;;5004158;28;20092;-68
2021/12/30 03:02:25;;;;;;;29.35;4.68;;;;;;;;;;5003794;28;20075;-68
2021/12/30 03:04:50;;;;;;;34.13;3.75;;;;;;;;;;5004279;28;20367;-68
2021/12/30 03:07:18;;;;;;;29.08;4.65;;;;;;;;;;5006748;28;20486;-68
2021/12/30 03:09:44;;;;;;;22.90;4.28;;;;;;;;;;5004148;28;20465;-68
2021/12/30 03:12:09;;;;;;;23.85;3.90;;;;;;;;;;5005940;28;20386;-68
2021/12/30 03:14:38;;;;;;;18.38;3.90;;;;;;;;;;5003600;28;20033;-68
2021/12/30 03:17:03;;;;;;;20.73;3.50;;;;;;;;;;5006765;28;20029;-68
2021/12/30 03:19:28;;;;;;;33.53;4.88;;;;;;;;;;5003111;28;20380;-68
2021/12/30 03:21:55;;;;;;;29.40;4.90;;;;;;;;;;5002278;28;20390;-68
2021/12/30 03:24:20;;;;;;;23.10;3.65;;;;;;;;;;5003959;28;20021;-68
2021/12/30 03:26:46;;;;;;;24.70;3.90;;;;;;;;;;5002696;28;20026;-68
2021/12/30 03:29:11;;;;;;;26.25;4.57;;;;;;;;;;5003418;28;20054;-68
2021/12/30 03:31:36;;;;;;;26.45;5.05;;;;;;;;;;5002410;28;20870;-68
2021/12/30 03:34:02;;;;;;;30.73;4.00;;;;;;;;;;5006231;28;20470;-68
2021/12/30 03:36:27;;;;;;;21.70;3.75;;;;;;;;;;5003399;28;20281;-68
2021/12/30 03:38:53;;;;;;;31.15;4.40;;;;;;;;;;5003284;28;20022;-68
2021/12/30 03:41:20;;;;;;;15.40;3.38;;;;;;;;;;5003283;28;20013;-68
2021/12/30 03:43:46;;;;;;;27.48;4.90;;;;;;;;;;5003137;28;20540;-69
2021/12/30 03:46:11;;;;;;;27.67;4.32;;;;;;;;;;5005308;28;20034;-69
2021/12/30 03:48:43;;;;;;;26.17;4.50;;;;;;;;;;5000936;28;20034;-69
2021/12/30 03:51:11;;;;;;;17.80;3.92;;;;;;;;;;5002782;28;20116;-68
2021/12/30 03:53:38;;;;;;;23.02;4.88;;;;;;;;;;5001289;28;20493;-69
2021/12/30 03:56:11;;;;;;;16.58;3.17;;;;;;;;;;5001681;28;20109;-68
2021/12/30 03:58:37;;;;;;;26.80;4.80;;;;;;;;;;5002341;28;20032;-69
2021/12/30 04:01:02;;;;;;;28.85;4.30;;;;;;;;;;5005571;28;20104;-69
2021/12/30 04:03:28;;;;;;;19.20;4.20;;;;;;;;;;5001714;28;20053;-69
2021/12/30 04:05:53;;;;;;;18.05;3.40;;;;;;;;;;5002639;28;20038;-69
2021/12/30 04:08:18;;;;;;;20.92;4.72;;;;;;;;;;5009251;28;20021;-69
2021/12/30 04:10:43;;;;;;;17.40;3.97;;;;;;;;;;5010685;28;20030;-68
2021/12/30 04:13:08;;;;;;;19.48;4.00;;;;;;;;;;5004131;28;20275;-69
2021/12/30 04:15:34;;;;;;;25.70;4.00;;;;;;;;;;5005232;28;20030;-68
2021/12/30 04:17:59;;;;;;;16.73;4.68;;;;;;;;;;5001383;28;20040;-69
2021/12/30 04:20:24;;;;;;;20.15;5.10;;;;;;;;;;5001828;28;20502;-69
2021/12/30 04:22:49;;;;;;;29.23;4.35;;;;;;;;;;5001863;28;20117;-69
2021/12/30 04:25:15;;;;;;;15.40;3.83;;;;;;;;;;5001981;28;20433;-69
2021/12/30 04:27:40;;;;;;;18.27;3.80;;;;;;;;;;5002158;28;20320;-69
2021/12/30 04:30:06;;;;;;;18.25;4.07;;;;;;;;;;5004169;28;20021;-69
2021/12/30 04:32:32;;;;;;;22.45;3.83;;;;;;;;;;5000873;28;20026;-69
2021/12/30 04:34:57;;;;;;;21.83;3.97;;;;;;;;;;5001758;28;20044;-69
2021/12/30 04:37:22;;;;;;;19.63;5.20;;;;;;;;;;5002228;28;20026;-69
2021/12/30 04:39:47;;;;;;;19.87;4.40;;;;;;;;;;5002588;28;20654;-69
2021/12/30 04:42:13;;;;;;;11.90;4.25;;;;;;;;;;5001440;28;20312;-69
2021/12/30 04:44:38;;;;;;;18.88;5.25;;;;;;;;;;5001172;28;20019;-69
2021/12/30 04:47:04;;;;;;;5.85;2.97;;;;;;;;;;5000699;28;20030;-69
2021/12/30 04:49:30;;;;;;;21.08;5.90;;;;;;;;;;5002822;28;20045;-69
2021/12/30 04:51:55;;;;;;;9.27;2.97;;;;;;;;;;5002170;28;20477;-69
2021/12/30 04:54:20;;;;;;;24.83;5.60;;;;;;;;;;5001910;28;20312;-69
2021/12/30 04:56:45;;;;;;;10.30;2.83;;;;;;;;;;5002372;28;20033;-68
2021/12/30 04:59:11;;;;;;;8.68;2.08;;;;;;;;;;5004827;28;20027;-69
2021/12/30 05:01:38;;;;;;;22.77;5.35;;;;;;;;;;5001714;28;20022;-69
2021/12/30 05:04:03;;;;;;;13.73;3.75;;;;;;;;;;5003219;28;20034;-69
2021/12/30 05:06:29;;;;;;;15.93;4.75;;;;;;;;;;5001209;28;20037;-69
2021/12/30 05:08:54;;;;;;;21.92;4.97;;;;;;;;;;5000587;28;20036;-69
2021/12/30 05:11:19;;;;;;;14.15;3.58;;;;;;;;;;5001631;28;20071;-69
2021/12/30 05:13:44;;;;;;;22.98;6.28;;;;;;;;;;5001845;28;20057;-69
2021/12/30 05:16:10;;;;;;;11.77;3.47;;;;;;;;;;5003717;28;20053;-69
2021/12/30 05:18:36;;;;;;;20.47;4.77;;;;;;;;;;5002019;28;20041;-69
2021/12/30 05:21:03;;;;;;;6.38;2.65;;;;;;;;;;5000294;28;20308;-69
2021/12/30 05:23:28;;;;;;;22.02;5.82;;;;;;;;;;5001402;28;20049;-69
2021/12/30 05:25:54;;;;;;;29.10;5.50;;;;;;;;;;5000829;28;20018;-69
2021/12/30 05:28:19;;;;;;;10.25;3.42;;;;;;;;;;5000347;28;20029;-69
2021/12/30 05:30:44;;;;;;;28.15;6.93;;;;;;;;;;5001323;28;20398;-69
2021/12/30 05:33:09;;;;;;;10.98;2.83;;;;;;;;;;5001013;28;20041;-69
2021/12/30 05:35:35;;;;;;;4.90;2.60;;;;;;;;;;5000522;28;20160;-69
2021/12/30 05:38:01;;;;;;;27.30;7.47;;;;;;;;;;5002095;28;20117;-70
2021/12/30 05:40:27;;;;;;;23.00;6.40;;;;;;;;;;5001784;28;20049;-69
2021/12/30 05:42:52;;;;;;;34.50;8.45;;;;;;;;;;5004972;28;21381;-69
2021/12/30 05:45:18;;;;;;;25.75;8.02;;;;;;;;;;5002926;28;20622;-69
2021/12/30 05:47:46;;;;;;;12.43;4.65;;;;;;;;;;5003805;28;20022;-69
2021/12/30 05:50:12;;;;;;;34.15;8.07;;;;;;;;;;5001443;28;20386;-69
2021/12/30 05:52:37;;;;;;;25.80;6.70;;;;;;;;;;5003125;28;20030;-69
2021/12/30 05:55:03;;;;;;;25.75;8.60;;;;;;;;;;5005187;28;20056;-69
2021/12/30 05:57:29;;;;;;;9.63;3.80;;;;;;;;;;5004265;28;20114;-69
2021/12/30 05:59:54;;;;;;;26.75;6.15;;;;;;;;;;5005453;28;20101;-69
2021/12/30 06:02:20;;;;;;;17.58;4.80;;;;;;;;;;5005406;28;20010;-69
2021/12/30 06:04:45;;;;;;;22.02;6.30;;;;;;;;;;5004300;28;20057;-69
2021/12/30 06:07:10;;;;;;;16.90;6.10;;;;;;;;;;5005450;28;20034;-69
2021/12/30 06:09:36;;;;;;;23.02;7.55;;;;;;;;;;5004895;28;20034;-69
2021/12/30 06:12:01;;;;;;;26.92;7.00;;;;;;;;;;5005113;28;20104;-69
2021/12/30 06:14:26;;;;;;;18.08;6.00;;;;;;;;;;5005005;28;20148;-69
2021/12/30 06:16:51;;;;;;;14.97;5.57;;;;;;;;;;5005666;28;20502;-69
2021/12/30 06:19:16;;;;;;;19.88;6.35;;;;;;;;;;5002937;28;20269;-69
2021/12/30 06:21:42;;;;;;;25.70;5.78;;;;;;;;;;5003622;28;20026;-69
2021/12/30 06:24:07;;;;;;;14.60;6.20;;;;;;;;;;5004994;28;20030;-69
2021/12/30 06:26:32;;;;;;;15.48;5.70;;;;;;;;;;5006437;28;20026;-69
2021/12/30 06:28:58;;;;;;;14.25;4.70;;;;;;;;;;5004728;28;20105;-69
2021/12/30 06:31:23;;;;;;;9.60;3.17;;;;;;;;;;5004471;28;20026;-69
2021/12/30 06:33:48;;;;;;;7.03;2.83;;;;;;;;;;5004038;28;20315;-69
2021/12/30 06:36:13;;;;;;;9.77;4.03;;;;;;;;;;5003328;28;20140;-69
2021/12/30 06:38:39;;;;;;;54.45;21.77;;;;;;;;;;5009685;28;20335;-69
2021/12/30 06:41:04;;;;;;;29.70;11.73;;;;;;;;;;5013253;28;20021;-69
2021/12/30 06:43:29;;;;;;;83.25;29.25;;;;;;;;;;5012741;28;20749;-69
2021/12/30 06:45:54;;;;;;;39.58;15.25;;;;;;;;;;5012997;28;20030;-69
2021/12/30 06:48:20;;;;;;;11.02;3.38;;;;;;;;;;5012879;28;20030;-69
2021/12/30 06:50:52;;;;;;;4.03;1.90;;;;;;;;;;5011976;28;20022;-69
2021/12/30 06:53:21;;;;;;;1.92;1.08;;;;;;;;;;5012005;28;20394;-69
2021/12/30 06:55:47;;;;;;;6.18;0.50;;;;;;;;;;5012976;28;20056;-70
2021/12/30 06:58:12;;;;;;;2.45;1.25;;;;;;;;;;5012746;28;20425;-69
2021/12/30 07:00:38;;;;;;;1.40;1.08;;;;;;;;;;5012603;28;20378;-69
2021/12/30 07:03:03;;;;;;;3.33;0.90;;;;;;;;;;5012328;28;20104;-70
2021/12/30 07:05:28;;;;;;;5.73;1.20;;;;;;;;;;5012518;28;20036;-69
2021/12/30 07:07:53;;;;;;;1.33;0.90;;;;;;;;;;5011736;28;20272;-70
2021/12/30 07:10:18;;;;;;;1.92;1.10;;;;;;;;;;5012235;28;20668;-69
2021/12/30 07:12:44;;;;;;;1.13;0.70;;;;;;;;;;5012219;28;20057;-67
2021/12/30 07:15:09;;;;;;;1.10;0.77;;;;;;;;;;5012511;28;20032;-66
2021/12/30 07:17:34;;;;;;;1.67;0.77;;;;;;;;;;5011971;28;20288;-67
2021/12/30 07:20:01;;;;;;;1.50;0.65;;;;;;;;;;5011790;28;20049;-70
2021/12/30 07:22:26;;;;;;;3.58;1.40;;;;;;;;;;5011649;28;20060;-69
2021/12/30 07:24:51;;;;;;;1.55;0.77;;;;;;;;;;5011080;28;20471;-69
2021/12/30 07:27:16;;;;;;;1.90;0.80;;;;;;;;;;5011662;28;20163;-67
2021/12/30 07:29:42;;;;;;;3.70;0.90;;;;;;;;;;5012194;28;20490;-69
2021/12/30 07:32:07;;;;;;;1.83;0.60;;;;;;;;;;5011498;28;20269;-69
2021/12/30 07:34:32;;;;;;;1.50;0.65;;;;;;;;;;5011865;28;20053;-70
2021/12/30 07:36:57;;;;;;;3.30;0.30;;;;;;;;;;5011613;28;20494;-69
2021/12/30 07:39:23;;;;;;;1.77;0.80;;;;;;;;;;5011938;28;20517;-68
2021/12/30 07:41:48;;;;;;;1.40;0.88;;;;;;;;;;5010632;28;20037;-68
2021/12/30 07:44:15;;;;;;;1.38;0.70;;;;;;;;;;5011951;28;20022;-68
2021/12/30 07:46:40;;;;;;;4.20;0.57;;;;;;;;;;5011452;28;20125;-67
2021/12/30 07:49:06;;;;;;;4.53;0.50;;;;;;;;;;5011742;28;20029;-67
2021/12/30 07:51:31;;;;;;;1.98;0.57;;;;;;;;;;5011081;28;20022;-68
2021/12/30 07:53:56;;;;;;;1.03;0.40;;;;;;;;;;5011142;28;20072;-67
2021/12/30 07:56:21;;;;;;;0.67;0.30;;;;;;;;;;5011357;28;20279;-67
2021/12/30 07:58:46;;;;;;;1.57;0.60;;;;;;;;;;5011673;28;20267;-68
2021/12/30 08:01:13;;;;;;;3.63;0.50;;;;;;;;;;5011063;28;20352;-68
2021/12/30 08:03:38;;;;;;;1.60;0.60;;;;;;;;;;5011232;28;20025;-69
2021/12/30 08:06:03;;;;;;;2.92;0.70;;;;;;;;;;5011500;28;20029;-69
2021/12/30 08:08:28;;;;;;;0.70;0.40;;;;;;;;;;5010915;28;20022;-69
2021/12/30 08:10:54;;;;;;;1.95;0.80;;;;;;;;;;5011101;28;20022;-68
2021/12/30 08:13:19;;;;;;;0.45;0.43;;;;;;;;;;5011458;28;20028;-68
2021/12/30 08:15:46;;;;;;;1.13;0.68;;;;;;;;;;5011402;28;20057;-68
2021/12/30 08:18:11;;;;;;;2.15;0.70;;;;;;;;;;5010844;28;20037;-68
2021/12/30 08:20:37;;;;;;;2.87;0.60;;;;;;;;;;5010804;28;20041;-68
2021/12/30 08:23:02;;;;;;;3.50;1.02;;;;;;;;;;5010719;28;20264;-69
2021/12/30 08:25:27;;;;;;;1.45;0.65;;;;;;;;;;5011786;28;20486;-68
2021/12/30 08:27:54;;;;;;;1.48;0.88;;;;;;;;;;5010137;28;20511;-69
2021/12/30 08:30:20;;;;;;;1.67;0.60;;;;;;;;;;5011639;28;20417;-69
2021/12/30 08:32:45;;;;;;;1.98;1.00;;;;;;;;;;5010876;28;20044;-68
2021/12/30 08:35:11;;;;;;;3.97;0.60;;;;;;;;;;5011307;28;20033;-68
2021/12/30 08:37:37;;;;;;;1.90;0.90;;;;;;;;;;5010452;28;20061;-68
2021/12/30 08:40:03;;;;;;;1.23;0.90;;;;;;;;;;5011294;28;20057;-68
2021/12/30 08:42:29;;;;;;;2.45;1.20;;;;;;;;;;5010652;28;20474;-67
2021/12/30 08:44:56;;;;;;;2.80;1.00;;;;;;;;;;5011338;28;20079;-67
2021/12/30 08:47:21;;;;;;;6.22;1.00;;;;;;;;;;5010605;28;20398;-68
2021/12/30 08:49:46;;;;;;;2.05;1.17;;;;;;;;;;5010838;28;20022;-67
2021/12/30 08:52:16;;;;;;;1.75;1.15;;;;;;;;;;5010489;28;20104;-67
2021/12/30 08:54:41;;;;;;;2.83;1.30;;;;;;;;;;4995320;28;20022;-67
2021/12/30 08:57:06;;;;;;;3.30;0.73;;;;;;;;;;5009595;28;20033;-69
2021/12/30 08:59:32;;;;;;;2.17;1.30;;;;;;;;;;5009992;28;20033;-68
2021/12/30 09:01:57;;;;;;;2.60;1.45;;;;;;;;;;5010286;28;20481;-67
2021/12/30 09:04:22;;;;;;;2.83;1.45;;;;;;;;;;5011063;28;20021;-68
2021/12/30 09:06:47;;;;;;;2.13;1.13;;;;;;;;;;5008650;28;20120;-69
2021/12/30 09:09:13;;;;;;;1.02;0.70;;;;;;;;;;5010763;28;20287;-69
2021/12/30 09:11:38;;;;;;;2.42;1.23;;;;;;;;;;5010312;28;20034;-68
2021/12/30 09:14:03;;;;;;;2.13;1.13;;;;;;;;;;5008747;28;20057;-68
2021/12/30 09:16:29;;;;;;;4.40;1.85;;;;;;;;;;5006769;28;20271;-69
2021/12/30 09:18:54;;;;;;;3.67;1.67;;;;;;;;;;5015154;28;20018;-69
2021/12/30 09:21:19;;;;;;;1.38;0.95;;;;;;;;;;5013895;28;20539;-67
2021/12/30 09:23:44;;;;;;;4.00;1.50;;;;;;;;;;5014850;28;20032;-68
2021/12/30 09:26:10;;;;;;;21.27;2.40;;;;;;;;;;5013241;28;20057;-68
2021/12/30 09:28:36;;;;;;;2.58;1.70;;;;;;;;;;5014772;28;20304;-68
2021/12/30 09:31:01;;;;;;;1.35;0.70;;;;;;;;;;5014363;28;20025;-68
2021/12/30 09:33:26;;;;;;;7.60;1.40;;;;;;;;;;5014211;28;20421;-68
2021/12/30 09:35:51;;;;;;;3.05;0.90;;;;;;;;;;5013532;28;20277;-69
2021/12/30 09:38:17;;;;;;;8.23;0.90;;;;;;;;;;5014148;28;20065;-68
2021/12/30 09:40:42;;;;;;;4.30;1.55;;;;;;;;;;5018030;28;20794;-69
2021/12/30 09:43:09;;;;;;;2.08;1.40;;;;;;;;;;5018729;28;20481;-69
2021/12/30 09:45:36;;;;;;;1.38;0.98;;;;;;;;;;5014126;28;20668;-68
2021/12/30 09:48:04;;;;;;;4.60;1.40;;;;;;;;;;5014103;28;20092;-68
2021/12/30 09:50:32;;;;;;;2.20;0.95;;;;;;;;;;5014111;28;20123;-68
2021/12/30 09:52:58;;;;;;;4.47;1.00;;;;;;;;;;5016199;28;20025;-68
2021/12/30 09:55:25;;;;;;;2.40;0.90;;;;;;;;;;5014046;28;20521;-67
2021/12/30 09:57:50;;;;;;;1.98;1.25;;;;;;;;;;5009408;28;20085;-68
2021/12/30 10:00:15;;;;;;;1.80;0.80;;;;;;;;;;5013223;28;20471;-68
2021/12/30 10:02:42;;;;;;;3.40;0.68;;;;;;;;;;5013314;28;20352;-68
2021/12/30 10:05:09;;;;;;;1.48;0.77;;;;;;;;;;5002270;28;20126;-68
2021/12/30 10:07:35;;;;;;;2.28;0.70;;;;;;;;;;5013423;28;20022;-67
2021/12/30 10:10:03;;;;;;;0.90;0.60;;;;;;;;;;5013931;28;20032;-68
2021/12/30 10:12:44;;;;;;;8.07;0.80;;;;;;;;;;5013200;28;20390;-68
2021/12/30 10:15:11;;;;;;;2.97;1.02;;;;;;;;;;5029109;28;20481;-68
2021/12/30 10:17:36;;;;;;;0.80;0.57;;;;;;;;;;5018137;28;20106;-68
2021/12/30 10:20:27;;;;;;;1.65;0.80;;;;;;;;;;5013598;28;20042;-69
2021/12/30 10:22:53;;;;;;;4.32;0.73;;;;;;;;;;5011900;28;20020;-68
2021/12/30 10:25:24;;;;;;;2.60;0.63;;;;;;;;;;5013152;28;20061;-68
2021/12/30 10:27:49;;;;;;;1.30;0.82;;;;;;;;;;5013176;28;20030;-68
2021/12/30 10:30:27;;;;;;;6.50;1.02;;;;;;;;;;5012531;28;20389;-68
2021/12/30 10:32:52;;;;;;;3.83;0.88;;;;;;;;;;5013198;28;20025;-68
2021/12/30 10:35:17;;;;;;;1.35;0.77;;;;;;;;;;5013338;28;20021;-67
2021/12/30 10:37:44;;;;;;;1.90;1.00;;;;;;;;;;5012824;28;20025;-67
2021/12/30 10:40:24;;;;;;;2.85;1.10;;;;;;;;;;5012844;28;20257;-67
2021/12/30 10:42:49;;;;;;;2.88;0.70;;;;;;;;;;5016375;28;20025;-67
2021/12/30 10:45:19;;;;;;;3.00;0.97;;;;;;;;;;5012769;28;20095;-67
2021/12/30 10:47:54;;;;;;;3.28;1.00;;;;;;;;;;5012717;28;20331;-67
2021/12/30 10:50:21;;;;;;;3.80;1.10;;;;;;;;;;5009336;28;20033;-67
2021/12/30 10:52:47;;;;;;;2.20;1.08;;;;;;;;;;5013606;28;20079;-68
2021/12/30 10:55:13;;;;;;;1.77;0.80;;;;;;;;;;5012666;28;20044;-68
2021/12/30 10:57:38;;;;;;;4.57;1.67;;;;;;;;;;5012338;28;20493;-68
2021/12/30 11:00:04;;;;;;;5.00;0.63;;;;;;;;;;5012446;28;20471;-67
2021/12/30 11:02:29;;;;;;;2.25;0.57;;;;;;;;;;5011918;28;20014;-67
2021/12/30 11:05:04;;;;;;;3.60;0.63;;;;;;;;;;5015796;28;20068;-67
2021/12/30 11:07:51;;;;;;;0.90;0.57;;;;;;;;;;5012393;28;20010;-67
2021/12/30 11:10:27;;;;;;;5.32;0.70;;;;;;;;;;4998867;28;20033;-67
2021/12/30 11:12:52;;;;;;;2.65;0.73;;;;;;;;;;5008373;28;20026;-68
2021/12/30 11:15:17;;;;;;;3.50;0.50;;;;;;;;;;5012423;28;20032;-68
2021/12/30 11:17:42;;;;;;;7.10;1.08;;;;;;;;;;5012075;28;20307;-66
2021/12/30 11:20:09;;;;;;;3.53;1.00;;;;;;;;;;5010409;28;20068;-66
2021/12/30 11:22:35;;;;;;;2.35;1.02;;;;;;;;;;5009693;28;20055;-66
2021/12/30 11:25:02;;;;;;;3.63;0.93;;;;;;;;;;5012320;28;20063;-67
2021/12/30 11:27:29;;;;;;;3.97;1.10;;;;;;;;;;5012363;28;20018;-67
2021/12/30 11:29:56;;;;;;;5.32;1.17;;;;;;;;;;5011981;28;20034;-67
2021/12/30 11:32:29;;;;;;;5.72;1.38;;;;;;;;;;5009714;28;20018;-67
2021/12/30 11:34:55;;;;;;;1.95;1.20;;;;;;;;;;5009060;28;20100;-67
2021/12/30 11:37:20;;;;;;;7.07;1.75;;;;;;;;;;5006742;28;20026;-67
2021/12/30 11:39:47;;;;;;;2.22;1.13;;;;;;;;;;5010911;28;20040;-67
2021/12/30 11:42:17;;;;;;;2.30;1.00;;;;;;;;;;5010355;28;20032;-66
2021/12/30 11:44:45;;;;;;;7.28;1.48;;;;;;;;;;5007530;28;20101;-66
2021/12/30 11:47:29;;;;;;;4.38;1.30;;;;;;;;;;5009663;28;20034;-67
2021/12/30 11:49:54;;;;;;;5.65;1.67;;;;;;;;;;5009353;28;20034;-67
2021/12/30 11:52:38;;;;;;;2.63;1.23;;;;;;;;;;5010426;28;20025;-67
2021/12/30 11:55:23;;;;;;;4.20;1.40;;;;;;;;;;5009477;28;20672;-67
2021/12/30 11:57:49;;;;;;;7.80;1.35;;;;;;;;;;5010935;28;20038;-70
2021/12/30 12:00:36;;;;;;;3.13;1.98;;;;;;;;;;5011233;28;20105;-66
2021/12/30 12:03:02;;;;;;;3.63;1.48;;;;;;;;;;5008199;28;20044;-66
2021/12/30 12:05:43;;;;;;;3.65;1.58;;;;;;;;;;5010335;28;20022;-66
2021/12/30 12:08:10;;;;;;;5.18;1.73;;;;;;;;;;5010465;28;20017;-67
2021/12/30 12:10:35;;;;;;;3.55;1.55;;;;;;;;;;5009258;28;20049;-67
2021/12/30 12:13:19;;;;;;;7.85;1.40;;;;;;;;;;5009085;28;20194;-67
2021/12/30 12:15:44;;;;;;;3.67;1.95;;;;;;;;;;5010311;28;20030;-68
2021/12/30 12:18:13;;;;;;;5.43;1.40;;;;;;;;;;5009852;28;20025;-66
2021/12/30 12:20:49;;;;;;;3.78;1.55;;;;;;;;;;5011038;28;20018;-67
2021/12/30 12:23:30;;;;;;;11.75;1.55;;;;;;;;;;5011522;28;20045;-67
2021/12/30 12:26:18;;;;;;;2.50;1.13;;;;;;;;;;5010649;28;20084;-67
2021/12/30 12:28:44;;;;;;;8.63;2.22;;;;;;;;;;4997238;28;20050;-66
2021/12/30 12:31:10;;;;;;;4.43;1.30;;;;;;;;;;5010678;28;20057;-66
2021/12/30 12:33:36;;;;;;;2.92;1.60;;;;;;;;;;5010027;28;20045;-66
2021/12/30 12:36:08;;;;;;;2.95;1.10;;;;;;;;;;5011028;28;20407;-67
2021/12/30 12:38:43;;;;;;;5.20;1.25;;;;;;;;;;4995603;28;20018;-67
2021/12/30 12:41:20;;;;;;;4.75;1.13;;;;;;;;;;5008355;28;20021;-68
2021/12/30 12:43:49;;;;;;;2.58;1.00;;;;;;;;;;5005587;28;20747;-66
2021/12/30 12:46:14;;;;;;;5.10;1.70;;;;;;;;;;5005926;28;20016;-66
2021/12/30 12:48:40;;;;;;;4.00;1.37;;;;;;;;;;5005005;28;20025;-68
2021/12/30 12:51:21;;;;;;;3.67;1.30;;;;;;;;;;5008471;28;20374;-67
2021/12/30 12:53:47;;;;;;;7.05;1.10;;;;;;;;;;5002646;28;20034;-68
2021/12/30 12:56:20;;;;;;;6.03;1.30;;;;;;;;;;4993190;28;20372;-68
2021/12/30 12:58:47;;;;;;;1.20;0.63;;;;;;;;;;5008626;28;20080;-68
2021/12/30 13:01:14;;;;;;;4.57;1.77;;;;;;;;;;5003998;28;20475;-68
2021/12/30 13:03:40;;;;;;;5.35;1.35;;;;;;;;;;5010508;28;20044;-68
2021/12/30 13:06:10;;;;;;;1.65;0.93;;;;;;;;;;5010484;28;20026;-68
2021/12/30 13:08:37;;;;;;;11.77;1.70;;;;;;;;;;5009875;28;20108;-68
2021/12/30 13:11:03;;;;;;;4.13;1.30;;;;;;;;;;5010359;28;20029;-68
2021/12/30 13:13:29;;;;;;;4.32;1.63;;;;;;;;;;5010569;28;20026;-67
2021/12/30 13:15:56;;;;;;;1.63;0.80;;;;;;;;;;5010676;28;20034;-68
2021/12/30 13:18:21;;;;;;;6.15;1.30;;;;;;;;;;5009350;28;20497;-68
2021/12/30 13:20:48;;;;;;;4.55;1.30;;;;;;;;;;5010012;28;20022;-67
2021/12/30 13:23:23;;;;;;;3.78;1.30;;;;;;;;;;5010104;28;20025;-67
2021/12/30 13:25:55;;;;;;;2.00;0.90;;;;;;;;;;5006208;28;20029;-68
2021/12/30 13:28:21;;;;;;;7.00;1.05;;;;;;;;;;5009222;28;20034;-68
2021/12/30 13:30:46;;;;;;;4.73;1.43;;;;;;;;;;5009868;28;20664;-67
2021/12/30 13:33:15;;;;;;;12.87;1.37;;;;;;;;;;5009853;28;20269;-68
2021/12/30 13:35:40;;;;;;;3.40;0.80;;;;;;;;;;5009994;28;20356;-67
2021/12/30 13:38:08;;;;;;;5.65;0.93;;;;;;;;;;5006649;28;20129;-68
2021/12/30 13:40:42;;;;;;;3.95;0.80;;;;;;;;;;4990824;28;20371;-67
2021/12/30 13:43:17;;;;;;;2.97;1.15;;;;;;;;;;5010223;28;20025;-67
2021/12/30 13:45:44;;;;;;;1.38;0.77;;;;;;;;;;5010167;28;20552;-68
2021/12/30 13:48:14;;;;;;;5.18;0.82;;;;;;;;;;5010516;28;20888;-68
2021/12/30 13:50:40;;;;;;;3.75;1.42;;;;;;;;;;5010489;28;20022;-68
2021/12/30 13:53:06;;;;;;;10.85;5.75;;;;;;;;;;5011702;28;20033;-68
2021/12/30 13:55:36;;;;;;;6.80;1.70;;;;;;;;;;5013844;28;20022;-68
2021/12/30 13:58:04;;;;;;;2.80;0.90;;;;;;;;;;5014591;28;20025;-68
2021/12/30 14:00:33;;;;;;;17.25;0.93;;;;;;;;;;5009025;28;20062;-68
2021/12/30 14:03:04;;;;;;;1.80;0.65;;;;;;;;;;5010890;28;20045;-68
2021/12/30 14:05:29;;;;;;;2.95;0.98;;;;;;;;;;5013951;28;20014;-68
2021/12/30 14:07:55;;;;;;;2.95;0.70;;;;;;;;;;5013804;28;20040;-68
2021/12/30 14:10:20;;;;;;;3.88;1.05;;;;;;;;;;5013615;28;20069;-68
2021/12/30 14:13:17;;;;;;;10.00;0.90;;;;;;;;;;5013617;28;20626;-68
2021/12/30 14:15:43;;;;;;;2.25;0.80;;;;;;;;;;4984381;28;20287;-68
2021/12/30 14:18:10;;;;;;;1.30;0.57;;;;;;;;;;5015299;28;20018;-67
2021/12/30 14:20:36;;;;;;;5.68;0.90;;;;;;;;;;5013784;28;20419;-68
2021/12/30 14:23:01;;;;;;;4.28;0.65;;;;;;;;;;5013502;28;20092;-67
2021/12/30 14:25:31;;;;;;;3.05;0.80;;;;;;;;;;5014318;28;20047;-68
2021/12/30 14:27:57;;;;;;;3.92;1.08;;;;;;;;;;5013141;28;20026;-68
2021/12/30 14:30:23;;;;;;;2.22;1.10;;;;;;;;;;5012907;28;20034;-68
2021/12/30 14:32:48;;;;;;;1.83;0.80;;;;;;;;;;5013318;28;20045;-68
2021/12/30 14:35:13;;;;;;;5.32;1.30;;;;;;;;;;5014508;28;20057;-68